sensor_id;sensor_type;location;lat;lon;timestamp;P1;durP1;ratioP1;P2;durP2;ratioP2
3849;SDS011;1940;51.052;13.678;2022-11-15T00:01:47;49.07;;;23.30;;
3849;SDS011;1940;51.052;13.678;2022-11-15T00:04:13;42.10;;;21.60;;
3849;SDS011;1940;51.052;13.678;2022-11-15T00:06:38;50.30;;;23.70;;
3849;SDS011;1940;51.052;13.678;2022-11-15T00:09:04;44.40;;;21.60;;
3849;SDS011;1940;51.052;13.678;2022-11-15T00:11:30;56.57;;;25.73;;
3849;SDS011;1940;51.052;13.678;2022-11-15T00:13:56;51.47;;;23.77;;
3849;SDS011;1940;51.052;13.678;2022-11-15T00:16:22;57.80;;;25.00;;
3849;SDS011;1940;51.052;13.678;2022-11-15T00:18:48;53.47;;;24.37;;
3849;SDS011;1940;51.052;13.678;2022-11-15T00:21:15;49.63;;;23.83;;
3849;SDS011;1940;51.052;13.678;2022-11-15T00:23:41;51.50;;;24.17;;
3849;SDS011;1940;51.052;13.678;2022-11-15T00:26:06;56.50;;;24.80;;
3849;SDS011;1940;51.052;13.678;2022-11-15T00:28:35;61.93;;;27.00;;
3849;SDS011;1940;51.052;13.678;2022-11-15T00:31:05;56.13;;;27.50;;
3849;SDS011;1940;51.052;13.678;2022-11-15T00:33:32;50.67;;;24.60;;
3849;SDS011;1940;51.052;13.678;2022-11-15T00:35:59;57.03;;;26.07;;
3849;SDS011;1940;51.052;13.678;2022-11-15T00:38:33;58.93;;;25.63;;
3849;SDS011;1940;51.052;13.678;2022-11-15T00:40:59;62.40;;;27.40;;
3849;SDS011;1940;51.052;13.678;2022-11-15T00:43:25;56.37;;;26.60;;
3849;SDS011;1940;51.052;13.678;2022-11-15T00:45:51;60.07;;;27.77;;
3849;SDS011;1940;51.052;13.678;2022-11-15T00:48:16;57.20;;;26.73;;
3849;SDS011;1940;51.052;13.678;2022-11-15T00:50:42;59.90;;;27.10;;
3849;SDS011;1940;51.052;13.678;2022-11-15T00:53:07;56.37;;;27.30;;
3849;SDS011;1940;51.052;13.678;2022-11-15T00:55:33;55.40;;;26.37;;
3849;SDS011;1940;51.052;13.678;2022-11-15T00:57:58;50.47;;;25.87;;
3849;SDS011;1940;51.052;13.678;2022-11-15T01:00:24;48.53;;;25.07;;
3849;SDS011;1940;51.052;13.678;2022-11-15T01:02:49;52.80;;;24.97;;
3849;SDS011;1940;51.052;13.678;2022-11-15T01:05:15;50.70;;;24.80;;
3849;SDS011;1940;51.052;13.678;2022-11-15T01:07:41;49.60;;;24.03;;
3849;SDS011;1940;51.052;13.678;2022-11-15T01:10:07;56.33;;;24.83;;
3849;SDS011;1940;51.052;13.678;2022-11-15T01:12:33;51.90;;;24.60;;
3849;SDS011;1940;51.052;13.678;2022-11-15T01:14:58;49.87;;;24.17;;
3849;SDS011;1940;51.052;13.678;2022-11-15T01:17:24;51.90;;;25.30;;
3849;SDS011;1940;51.052;13.678;2022-11-15T01:19:50;56.73;;;25.70;;
3849;SDS011;1940;51.052;13.678;2022-11-15T01:22:15;44.90;;;23.30;;
3849;SDS011;1940;51.052;13.678;2022-11-15T01:24:41;47.63;;;22.90;;
3849;SDS011;1940;51.052;13.678;2022-11-15T01:27:07;53.37;;;22.87;;
3849;SDS011;1940;51.052;13.678;2022-11-15T01:29:32;46.23;;;22.87;;
3849;SDS011;1940;51.052;13.678;2022-11-15T01:31:58;51.17;;;23.90;;
3849;SDS011;1940;51.052;13.678;2022-11-15T01:34:24;50.67;;;23.60;;
3849;SDS011;1940;51.052;13.678;2022-11-15T01:36:49;50.00;;;22.57;;
3849;SDS011;1940;51.052;13.678;2022-11-15T01:39:15;43.97;;;21.83;;
3849;SDS011;1940;51.052;13.678;2022-11-15T01:41:40;43.17;;;23.13;;
3849;SDS011;1940;51.052;13.678;2022-11-15T01:47:01;48.90;;;22.53;;
3849;SDS011;1940;51.052;13.678;2022-11-15T01:49:31;48.27;;;22.73;;
3849;SDS011;1940;51.052;13.678;2022-11-15T01:52:00;46.73;;;23.33;;
3849;SDS011;1940;51.052;13.678;2022-11-15T01:54:27;49.87;;;23.63;;
3849;SDS011;1940;51.052;13.678;2022-11-15T01:56:55;50.23;;;24.37;;
3849;SDS011;1940;51.052;13.678;2022-11-15T01:59:30;54.03;;;24.37;;
3849;SDS011;1940;51.052;13.678;2022-11-15T02:01:56;52.10;;;25.00;;
3849;SDS011;1940;51.052;13.678;2022-11-15T02:04:28;56.23;;;25.37;;
3849;SDS011;1940;51.052;13.678;2022-11-15T02:06:57;51.27;;;24.40;;
3849;SDS011;1940;51.052;13.678;2022-11-15T02:09:23;57.07;;;24.50;;
3849;SDS011;1940;51.052;13.678;2022-11-15T02:11:49;52.30;;;25.07;;
3849;SDS011;1940;51.052;13.678;2022-11-15T02:14:17;56.57;;;25.57;;
3849;SDS011;1940;51.052;13.678;2022-11-15T02:24:43;62.83;;;26.50;;
3849;SDS011;1940;51.052;13.678;2022-11-15T02:27:19;59.03;;;25.83;;
3849;SDS011;1940;51.052;13.678;2022-11-15T02:35:59;63.57;;;27.37;;
3849;SDS011;1940;51.052;13.678;2022-11-15T02:38:17;59.63;;;27.57;;
3849;SDS011;1940;51.052;13.678;2022-11-15T02:40:52;63.53;;;26.77;;
3849;SDS011;1940;51.052;13.678;2022-11-15T02:43:45;60.30;;;25.07;;
3849;SDS011;1940;51.052;13.678;2022-11-15T02:49:36;58.83;;;26.17;;
3849;SDS011;1940;51.052;13.678;2022-11-15T02:52:03;60.63;;;27.33;;
3849;SDS011;1940;51.052;13.678;2022-11-15T02:54:29;56.67;;;25.33;;
3849;SDS011;1940;51.052;13.678;2022-11-15T02:57:02;71.13;;;28.93;;
3849;SDS011;1940;51.052;13.678;2022-11-15T03:04:44;66.60;;;27.93;;
3849;SDS011;1940;51.052;13.678;2022-11-15T03:07:26;67.27;;;28.40;;
3849;SDS011;1940;51.052;13.678;2022-11-15T03:10:05;72.20;;;28.00;;
3849;SDS011;1940;51.052;13.678;2022-11-15T03:12:42;60.93;;;26.13;;
3849;SDS011;1940;51.052;13.678;2022-11-15T03:15:23;61.23;;;26.50;;
3849;SDS011;1940;51.052;13.678;2022-11-15T03:18:00;65.10;;;28.50;;
3849;SDS011;1940;51.052;13.678;2022-11-15T03:20:30;65.43;;;27.50;;
3849;SDS011;1940;51.052;13.678;2022-11-15T03:23:00;61.97;;;25.97;;
3849;SDS011;1940;51.052;13.678;2022-11-15T03:25:31;58.03;;;25.50;;
3849;SDS011;1940;51.052;13.678;2022-11-15T03:28:00;68.20;;;28.50;;
3849;SDS011;1940;51.052;13.678;2022-11-15T03:30:28;70.47;;;27.93;;
3849;SDS011;1940;51.052;13.678;2022-11-15T03:32:57;72.23;;;27.97;;
3849;SDS011;1940;51.052;13.678;2022-11-15T03:35:26;62.93;;;26.30;;
3849;SDS011;1940;51.052;13.678;2022-11-15T03:38:06;63.77;;;26.20;;
3849;SDS011;1940;51.052;13.678;2022-11-15T03:41:01;59.10;;;24.50;;
3849;SDS011;1940;51.052;13.678;2022-11-15T03:43:36;65.70;;;26.53;;
3849;SDS011;1940;51.052;13.678;2022-11-15T03:46:16;59.50;;;27.03;;
3849;SDS011;1940;51.052;13.678;2022-11-15T03:48:59;57.07;;;25.53;;
3849;SDS011;1940;51.052;13.678;2022-11-15T03:51:31;59.53;;;24.70;;
3849;SDS011;1940;51.052;13.678;2022-11-15T03:53:57;60.57;;;26.50;;
3849;SDS011;1940;51.052;13.678;2022-11-15T03:56:22;62.43;;;28.10;;
3849;SDS011;1940;51.052;13.678;2022-11-15T03:58:48;60.23;;;25.03;;
3849;SDS011;1940;51.052;13.678;2022-11-15T04:01:13;57.17;;;24.00;;
3849;SDS011;1940;51.052;13.678;2022-11-15T04:03:39;60.07;;;26.37;;
3849;SDS011;1940;51.052;13.678;2022-11-15T04:06:04;56.27;;;23.60;;
3849;SDS011;1940;51.052;13.678;2022-11-15T04:08:30;65.50;;;26.27;;
3849;SDS011;1940;51.052;13.678;2022-11-15T04:10:55;58.80;;;24.60;;
3849;SDS011;1940;51.052;13.678;2022-11-15T04:13:21;58.00;;;25.63;;
3849;SDS011;1940;51.052;13.678;2022-11-15T04:15:46;66.27;;;26.10;;
3849;SDS011;1940;51.052;13.678;2022-11-15T04:18:12;53.90;;;24.20;;
3849;SDS011;1940;51.052;13.678;2022-11-15T04:20:38;56.57;;;24.77;;
3849;SDS011;1940;51.052;13.678;2022-11-15T04:23:22;61.87;;;24.90;;
3849;SDS011;1940;51.052;13.678;2022-11-15T04:26:11;58.47;;;25.00;;
3849;SDS011;1940;51.052;13.678;2022-11-15T04:28:40;63.87;;;26.40;;
3849;SDS011;1940;51.052;13.678;2022-11-15T04:31:25;59.10;;;24.17;;
3849;SDS011;1940;51.052;13.678;2022-11-15T04:33:50;57.77;;;23.17;;
3849;SDS011;1940;51.052;13.678;2022-11-15T04:36:16;53.70;;;23.90;;
3849;SDS011;1940;51.052;13.678;2022-11-15T04:39:00;51.07;;;23.83;;
3849;SDS011;1940;51.052;13.678;2022-11-15T04:41:26;57.87;;;24.53;;
3849;SDS011;1940;51.052;13.678;2022-11-15T04:43:51;64.97;;;26.07;;
3849;SDS011;1940;51.052;13.678;2022-11-15T04:46:17;57.53;;;23.67;;
3849;SDS011;1940;51.052;13.678;2022-11-15T04:48:43;53.20;;;23.53;;
3849;SDS011;1940;51.052;13.678;2022-11-15T04:51:08;54.00;;;24.20;;
3849;SDS011;1940;51.052;13.678;2022-11-15T04:53:34;53.90;;;22.20;;
3849;SDS011;1940;51.052;13.678;2022-11-15T04:55:59;62.07;;;24.20;;
3849;SDS011;1940;51.052;13.678;2022-11-15T04:58:25;52.33;;;22.77;;
3849;SDS011;1940;51.052;13.678;2022-11-15T05:00:50;51.57;;;22.70;;
3849;SDS011;1940;51.052;13.678;2022-11-15T05:03:16;50.40;;;23.93;;
3849;SDS011;1940;51.052;13.678;2022-11-15T05:06:00;52.77;;;23.10;;
3849;SDS011;1940;51.052;13.678;2022-11-15T05:08:26;56.53;;;22.13;;
3849;SDS011;1940;51.052;13.678;2022-11-15T05:10:51;53.37;;;23.80;;
3849;SDS011;1940;51.052;13.678;2022-11-15T05:13:17;52.00;;;22.90;;
3849;SDS011;1940;51.052;13.678;2022-11-15T05:15:43;51.10;;;21.93;;
3849;SDS011;1940;51.052;13.678;2022-11-15T05:18:08;51.97;;;22.90;;
3849;SDS011;1940;51.052;13.678;2022-11-15T05:20:34;49.40;;;22.23;;
3849;SDS011;1940;51.052;13.678;2022-11-15T05:23:00;46.40;;;21.53;;
3849;SDS011;1940;51.052;13.678;2022-11-15T05:25:26;51.70;;;22.33;;
3849;SDS011;1940;51.052;13.678;2022-11-15T05:27:51;49.00;;;22.47;;
3849;SDS011;1940;51.052;13.678;2022-11-15T05:30:17;47.07;;;22.30;;
3849;SDS011;1940;51.052;13.678;2022-11-15T05:32:43;47.87;;;22.97;;
3849;SDS011;1940;51.052;13.678;2022-11-15T05:35:11;53.57;;;22.03;;
3849;SDS011;1940;51.052;13.678;2022-11-15T05:37:43;49.67;;;23.03;;
3849;SDS011;1940;51.052;13.678;2022-11-15T05:40:09;56.67;;;22.97;;
3849;SDS011;1940;51.052;13.678;2022-11-15T05:42:34;54.70;;;22.03;;
3849;SDS011;1940;51.052;13.678;2022-11-15T05:45:01;50.90;;;21.47;;
3849;SDS011;1940;51.052;13.678;2022-11-15T05:47:30;46.60;;;20.40;;
3849;SDS011;1940;51.052;13.678;2022-11-15T05:49:56;47.43;;;22.03;;
3849;SDS011;1940;51.052;13.678;2022-11-15T05:52:24;49.43;;;21.70;;
3849;SDS011;1940;51.052;13.678;2022-11-15T05:54:53;53.13;;;23.40;;
3849;SDS011;1940;51.052;13.678;2022-11-15T05:57:20;48.33;;;22.30;;
3849;SDS011;1940;51.052;13.678;2022-11-15T05:59:46;50.03;;;22.37;;
3849;SDS011;1940;51.052;13.678;2022-11-15T06:02:11;47.40;;;21.67;;
3849;SDS011;1940;51.052;13.678;2022-11-15T06:04:37;56.57;;;24.63;;
3849;SDS011;1940;51.052;13.678;2022-11-15T06:07:03;46.37;;;21.23;;
3849;SDS011;1940;51.052;13.678;2022-11-15T06:09:28;48.20;;;22.03;;
3849;SDS011;1940;51.052;13.678;2022-11-15T06:11:54;50.57;;;23.97;;
3849;SDS011;1940;51.052;13.678;2022-11-15T06:14:19;53.80;;;24.07;;
3849;SDS011;1940;51.052;13.678;2022-11-15T06:16:45;50.30;;;22.47;;
3849;SDS011;1940;51.052;13.678;2022-11-15T06:19:10;51.93;;;23.97;;
3849;SDS011;1940;51.052;13.678;2022-11-15T06:21:36;53.13;;;23.33;;
3849;SDS011;1940;51.052;13.678;2022-11-15T06:24:01;55.30;;;22.83;;
3849;SDS011;1940;51.052;13.678;2022-11-15T06:26:27;52.90;;;24.17;;
3849;SDS011;1940;51.052;13.678;2022-11-15T06:28:53;46.93;;;22.47;;
3849;SDS011;1940;51.052;13.678;2022-11-15T06:31:20;48.63;;;21.57;;
3849;SDS011;1940;51.052;13.678;2022-11-15T06:33:46;54.23;;;23.93;;
3849;SDS011;1940;51.052;13.678;2022-11-15T06:36:12;52.43;;;23.30;;
3849;SDS011;1940;51.052;13.678;2022-11-15T06:38:44;50.30;;;21.53;;
3849;SDS011;1940;51.052;13.678;2022-11-15T06:41:10;50.43;;;23.60;;
3849;SDS011;1940;51.052;13.678;2022-11-15T06:43:37;49.70;;;22.80;;
3849;SDS011;1940;51.052;13.678;2022-11-15T06:46:03;50.53;;;23.83;;
3849;SDS011;1940;51.052;13.678;2022-11-15T06:48:30;47.97;;;22.37;;
3849;SDS011;1940;51.052;13.678;2022-11-15T06:50:57;48.20;;;23.87;;
3849;SDS011;1940;51.052;13.678;2022-11-15T06:53:24;52.97;;;23.50;;
3849;SDS011;1940;51.052;13.678;2022-11-15T06:55:50;50.30;;;23.20;;
3849;SDS011;1940;51.052;13.678;2022-11-15T06:58:16;54.00;;;21.87;;
3849;SDS011;1940;51.052;13.678;2022-11-15T07:00:42;46.00;;;22.60;;
3849;SDS011;1940;51.052;13.678;2022-11-15T07:03:08;46.33;;;22.17;;
3849;SDS011;1940;51.052;13.678;2022-11-15T07:05:34;48.10;;;23.60;;
3849;SDS011;1940;51.052;13.678;2022-11-15T07:08:00;49.57;;;22.60;;
3849;SDS011;1940;51.052;13.678;2022-11-15T07:10:26;51.13;;;23.53;;
3849;SDS011;1940;51.052;13.678;2022-11-15T07:12:52;48.30;;;22.33;;
3849;SDS011;1940;51.052;13.678;2022-11-15T07:15:19;49.47;;;21.70;;
3849;SDS011;1940;51.052;13.678;2022-11-15T07:17:46;49.23;;;22.40;;
3849;SDS011;1940;51.052;13.678;2022-11-15T07:20:12;47.90;;;23.40;;
3849;SDS011;1940;51.052;13.678;2022-11-15T07:22:39;50.77;;;22.37;;
3849;SDS011;1940;51.052;13.678;2022-11-15T07:25:05;47.63;;;21.93;;
3849;SDS011;1940;51.052;13.678;2022-11-15T07:27:31;41.03;;;20.87;;
3849;SDS011;1940;51.052;13.678;2022-11-15T07:29:57;45.10;;;22.20;;
3849;SDS011;1940;51.052;13.678;2022-11-15T07:32:23;47.20;;;20.40;;
3849;SDS011;1940;51.052;13.678;2022-11-15T07:34:48;43.87;;;20.67;;
3849;SDS011;1940;51.052;13.678;2022-11-15T07:37:14;44.13;;;20.73;;
3849;SDS011;1940;51.052;13.678;2022-11-15T07:39:39;42.20;;;20.83;;
3849;SDS011;1940;51.052;13.678;2022-11-15T07:42:05;41.73;;;20.60;;
3849;SDS011;1940;51.052;13.678;2022-11-15T07:44:49;43.63;;;20.10;;
3849;SDS011;1940;51.052;13.678;2022-11-15T07:47:15;41.90;;;19.27;;
3849;SDS011;1940;51.052;13.678;2022-11-15T07:49:40;41.50;;;21.00;;
3849;SDS011;1940;51.052;13.678;2022-11-15T07:52:06;40.80;;;19.70;;
3849;SDS011;1940;51.052;13.678;2022-11-15T07:54:31;36.20;;;18.77;;
3849;SDS011;1940;51.052;13.678;2022-11-15T07:56:57;36.13;;;18.30;;
3849;SDS011;1940;51.052;13.678;2022-11-15T07:59:22;35.00;;;17.80;;
3849;SDS011;1940;51.052;13.678;2022-11-15T08:01:48;36.20;;;18.50;;
3849;SDS011;1940;51.052;13.678;2022-11-15T08:04:13;35.10;;;17.27;;
3849;SDS011;1940;51.052;13.678;2022-11-15T08:06:39;34.00;;;17.10;;
3849;SDS011;1940;51.052;13.678;2022-11-15T08:09:05;30.10;;;16.27;;
3849;SDS011;1940;51.052;13.678;2022-11-15T08:11:30;29.70;;;16.17;;
3849;SDS011;1940;51.052;13.678;2022-11-15T08:13:56;31.83;;;16.20;;
3849;SDS011;1940;51.052;13.678;2022-11-15T08:16:21;32.27;;;15.57;;
3849;SDS011;1940;51.052;13.678;2022-11-15T08:18:47;32.60;;;15.80;;
3849;SDS011;1940;51.052;13.678;2022-11-15T08:21:14;28.67;;;15.43;;
3849;SDS011;1940;51.052;13.678;2022-11-15T08:23:43;29.27;;;15.90;;
3849;SDS011;1940;51.052;13.678;2022-11-15T08:26:08;27.23;;;15.43;;
3849;SDS011;1940;51.052;13.678;2022-11-15T08:28:34;28.70;;;16.40;;
3849;SDS011;1940;51.052;13.678;2022-11-15T08:31:00;28.90;;;16.30;;
3849;SDS011;1940;51.052;13.678;2022-11-15T08:33:27;32.00;;;17.00;;
3849;SDS011;1940;51.052;13.678;2022-11-15T08:35:55;29.53;;;16.60;;
3849;SDS011;1940;51.052;13.678;2022-11-15T08:38:22;28.67;;;15.77;;
3849;SDS011;1940;51.052;13.678;2022-11-15T08:40:48;26.87;;;14.87;;
3849;SDS011;1940;51.052;13.678;2022-11-15T08:43:15;28.10;;;16.23;;
3849;SDS011;1940;51.052;13.678;2022-11-15T08:45:40;24.30;;;14.40;;
3849;SDS011;1940;51.052;13.678;2022-11-15T08:48:06;29.37;;;15.17;;
3849;SDS011;1940;51.052;13.678;2022-11-15T08:50:31;25.57;;;15.27;;
3849;SDS011;1940;51.052;13.678;2022-11-15T08:52:57;27.73;;;15.17;;
3849;SDS011;1940;51.052;13.678;2022-11-15T08:55:22;23.27;;;14.27;;
3849;SDS011;1940;51.052;13.678;2022-11-15T08:57:48;26.10;;;14.47;;
3849;SDS011;1940;51.052;13.678;2022-11-15T09:00:13;21.77;;;13.50;;
3849;SDS011;1940;51.052;13.678;2022-11-15T09:02:39;22.17;;;13.73;;
3849;SDS011;1940;51.052;13.678;2022-11-15T09:05:05;23.67;;;14.27;;
3849;SDS011;1940;51.052;13.678;2022-11-15T09:07:31;23.20;;;13.87;;
3849;SDS011;1940;51.052;13.678;2022-11-15T09:09:57;25.40;;;14.00;;
3849;SDS011;1940;51.052;13.678;2022-11-15T09:12:24;25.30;;;14.60;;
3849;SDS011;1940;51.052;13.678;2022-11-15T09:14:49;20.20;;;13.20;;
3849;SDS011;1940;51.052;13.678;2022-11-15T09:17:15;22.57;;;13.97;;
3849;SDS011;1940;51.052;13.678;2022-11-15T09:19:41;21.87;;;13.50;;
3849;SDS011;1940;51.052;13.678;2022-11-15T09:22:06;23.10;;;13.50;;
3849;SDS011;1940;51.052;13.678;2022-11-15T09:24:32;24.47;;;13.67;;
3849;SDS011;1940;51.052;13.678;2022-11-15T09:26:58;23.00;;;14.07;;
3849;SDS011;1940;51.052;13.678;2022-11-15T09:29:24;20.93;;;13.40;;
3849;SDS011;1940;51.052;13.678;2022-11-15T09:31:51;25.07;;;14.60;;
3849;SDS011;1940;51.052;13.678;2022-11-15T09:34:17;24.73;;;14.63;;
3849;SDS011;1940;51.052;13.678;2022-11-15T09:36:43;25.37;;;14.00;;
3849;SDS011;1940;51.052;13.678;2022-11-15T09:39:08;21.43;;;13.40;;
3849;SDS011;1940;51.052;13.678;2022-11-15T09:44:16;20.60;;;13.20;;
3849;SDS011;1940;51.052;13.678;2022-11-15T09:47:18;24.77;;;14.20;;
3849;SDS011;1940;51.052;13.678;2022-11-15T09:50:14;24.60;;;14.20;;
3849;SDS011;1940;51.052;13.678;2022-11-15T09:52:45;26.60;;;15.00;;
3849;SDS011;1940;51.052;13.678;2022-11-15T09:55:11;25.40;;;14.93;;
3849;SDS011;1940;51.052;13.678;2022-11-15T10:00:18;22.53;;;13.80;;
3849;SDS011;1940;51.052;13.678;2022-11-15T10:05:41;23.40;;;13.80;;
3849;SDS011;1940;51.052;13.678;2022-11-15T10:10:45;27.23;;;15.00;;
3849;SDS011;1940;51.052;13.678;2022-11-15T10:13:14;26.20;;;15.07;;
3849;SDS011;1940;51.052;13.678;2022-11-15T10:15:47;25.07;;;14.50;;
3849;SDS011;1940;51.052;13.678;2022-11-15T10:23:13;24.30;;;14.83;;
3849;SDS011;1940;51.052;13.678;2022-11-15T10:25:41;23.43;;;13.93;;
3849;SDS011;1940;51.052;13.678;2022-11-15T10:30:51;25.77;;;14.47;;
3849;SDS011;1940;51.052;13.678;2022-11-15T10:41:16;24.23;;;14.57;;
3849;SDS011;1940;51.052;13.678;2022-11-15T10:43:43;28.63;;;14.30;;
3849;SDS011;1940;51.052;13.678;2022-11-15T10:46:23;23.87;;;13.50;;
3849;SDS011;1940;51.052;13.678;2022-11-15T10:48:49;25.03;;;14.67;;
3849;SDS011;1940;51.052;13.678;2022-11-15T10:51:22;20.57;;;13.27;;
3849;SDS011;1940;51.052;13.678;2022-11-15T10:53:53;22.60;;;14.33;;
3849;SDS011;1940;51.052;13.678;2022-11-15T10:56:21;28.47;;;14.30;;
3849;SDS011;1940;51.052;13.678;2022-11-15T10:58:56;19.57;;;12.43;;
3849;SDS011;1940;51.052;13.678;2022-11-15T11:01:23;26.57;;;14.17;;
3849;SDS011;1940;51.052;13.678;2022-11-15T11:04:06;24.57;;;14.33;;
3849;SDS011;1940;51.052;13.678;2022-11-15T11:06:49;23.50;;;13.63;;
3849;SDS011;1940;51.052;13.678;2022-11-15T11:12:02;29.80;;;14.37;;
3849;SDS011;1940;51.052;13.678;2022-11-15T11:14:31;23.60;;;13.90;;
3849;SDS011;1940;51.052;13.678;2022-11-15T11:34:53;25.67;;;14.10;;
3849;SDS011;1940;51.052;13.678;2022-11-15T11:37:30;25.47;;;13.53;;
3849;SDS011;1940;51.052;13.678;2022-11-15T11:40:28;22.63;;;13.30;;
3849;SDS011;1940;51.052;13.678;2022-11-15T11:48:43;24.10;;;13.60;;
3849;SDS011;1940;51.052;13.678;2022-11-15T11:53:46;27.70;;;13.57;;
3849;SDS011;1940;51.052;13.678;2022-11-15T11:56:50;24.03;;;13.97;;
3849;SDS011;1940;51.052;13.678;2022-11-15T12:01:42;23.70;;;13.47;;
3849;SDS011;1940;51.052;13.678;2022-11-15T12:15:03;26.17;;;15.00;;
3849;SDS011;1940;51.052;13.678;2022-11-15T12:17:43;26.67;;;13.60;;
3849;SDS011;1940;51.052;13.678;2022-11-15T12:20:21;28.30;;;14.27;;
3849;SDS011;1940;51.052;13.678;2022-11-15T12:25:56;28.03;;;13.70;;
3849;SDS011;1940;51.052;13.678;2022-11-15T12:31:01;26.90;;;14.37;;
3849;SDS011;1940;51.052;13.678;2022-11-15T12:33:48;26.40;;;13.40;;
3849;SDS011;1940;51.052;13.678;2022-11-15T12:38:53;25.80;;;14.17;;
3849;SDS011;1940;51.052;13.678;2022-11-15T12:41:20;24.80;;;14.03;;
3849;SDS011;1940;51.052;13.678;2022-11-15T12:43:47;30.90;;;15.40;;
3849;SDS011;1940;51.052;13.678;2022-11-15T12:57:05;25.53;;;14.10;;
3849;SDS011;1940;51.052;13.678;2022-11-15T13:02:24;27.97;;;13.97;;
3849;SDS011;1940;51.052;13.678;2022-11-15T13:05:26;28.87;;;13.37;;
3849;SDS011;1940;51.052;13.678;2022-11-15T13:17:44;29.50;;;14.23;;
3849;SDS011;1940;51.052;13.678;2022-11-15T13:31:01;28.10;;;12.93;;
3849;SDS011;1940;51.052;13.678;2022-11-15T13:33:38;30.30;;;14.53;;
3849;SDS011;1940;51.052;13.678;2022-11-15T13:36:15;28.80;;;15.00;;
3849;SDS011;1940;51.052;13.678;2022-11-15T13:38:44;27.63;;;14.70;;
3849;SDS011;1940;51.052;13.678;2022-11-15T13:41:24;28.90;;;14.03;;
3849;SDS011;1940;51.052;13.678;2022-11-15T13:43:53;26.13;;;14.43;;
3849;SDS011;1940;51.052;13.678;2022-11-15T13:48:48;29.07;;;14.30;;
3849;SDS011;1940;51.052;13.678;2022-11-15T13:51:28;25.17;;;13.40;;
3849;SDS011;1940;51.052;13.678;2022-11-15T13:54:29;27.63;;;14.07;;
3849;SDS011;1940;51.052;13.678;2022-11-15T13:57:15;29.93;;;14.87;;
3849;SDS011;1940;51.052;13.678;2022-11-15T13:59:50;28.50;;;14.13;;
3849;SDS011;1940;51.052;13.678;2022-11-15T14:02:21;29.10;;;14.60;;
3849;SDS011;1940;51.052;13.678;2022-11-15T14:07:28;25.00;;;13.37;;
3849;SDS011;1940;51.052;13.678;2022-11-15T14:09:55;28.53;;;13.50;;
3849;SDS011;1940;51.052;13.678;2022-11-15T14:15:00;27.60;;;14.50;;
3849;SDS011;1940;51.052;13.678;2022-11-15T14:17:43;25.73;;;12.90;;
3849;SDS011;1940;51.052;13.678;2022-11-15T14:23:18;28.53;;;14.13;;
3849;SDS011;1940;51.052;13.678;2022-11-15T14:25:55;28.23;;;14.00;;
3849;SDS011;1940;51.052;13.678;2022-11-15T14:30:47;31.33;;;14.77;;
3849;SDS011;1940;51.052;13.678;2022-11-15T14:35:55;28.47;;;14.17;;
3849;SDS011;1940;51.052;13.678;2022-11-15T14:38:25;26.27;;;13.63;;
3849;SDS011;1940;51.052;13.678;2022-11-15T14:40:51;26.50;;;13.60;;
3849;SDS011;1940;51.052;13.678;2022-11-15T14:43:18;28.80;;;14.90;;
3849;SDS011;1940;51.052;13.678;2022-11-15T14:45:44;31.23;;;14.97;;
3849;SDS011;1940;51.052;13.678;2022-11-15T14:48:09;28.63;;;15.17;;
3849;SDS011;1940;51.052;13.678;2022-11-15T14:50:35;28.77;;;14.60;;
3849;SDS011;1940;51.052;13.678;2022-11-15T14:53:01;28.30;;;15.00;;
3849;SDS011;1940;51.052;13.678;2022-11-15T14:55:27;35.20;;;15.63;;
3849;SDS011;1940;51.052;13.678;2022-11-15T14:57:56;27.17;;;14.20;;
3849;SDS011;1940;51.052;13.678;2022-11-15T15:00:22;32.23;;;15.13;;
3849;SDS011;1940;51.052;13.678;2022-11-15T15:02:48;28.20;;;14.37;;
3849;SDS011;1940;51.052;13.678;2022-11-15T15:07:44;26.90;;;14.07;;
3849;SDS011;1940;51.052;13.678;2022-11-15T15:10:10;29.93;;;15.37;;
3849;SDS011;1940;51.052;13.678;2022-11-15T15:12:36;29.60;;;14.87;;
3849;SDS011;1940;51.052;13.678;2022-11-15T15:15:02;31.50;;;14.97;;
3849;SDS011;1940;51.052;13.678;2022-11-15T15:17:28;27.83;;;14.07;;
3849;SDS011;1940;51.052;13.678;2022-11-15T15:19:53;25.97;;;14.83;;
3849;SDS011;1940;51.052;13.678;2022-11-15T15:22:19;29.10;;;15.13;;
3849;SDS011;1940;51.052;13.678;2022-11-15T15:24:50;30.73;;;15.40;;
3849;SDS011;1940;51.052;13.678;2022-11-15T15:27:16;31.33;;;15.40;;
3849;SDS011;1940;51.052;13.678;2022-11-15T15:29:41;32.97;;;15.30;;
3849;SDS011;1940;51.052;13.678;2022-11-15T15:32:07;27.10;;;13.40;;
3849;SDS011;1940;51.052;13.678;2022-11-15T15:34:34;29.27;;;14.93;;
3849;SDS011;1940;51.052;13.678;2022-11-15T15:39:37;36.47;;;14.30;;
3849;SDS011;1940;51.052;13.678;2022-11-15T15:42:03;29.40;;;13.43;;
3849;SDS011;1940;51.052;13.678;2022-11-15T15:44:28;31.13;;;13.97;;
3849;SDS011;1940;51.052;13.678;2022-11-15T15:46:54;27.90;;;15.17;;
3849;SDS011;1940;51.052;13.678;2022-11-15T15:49:20;24.00;;;12.90;;
3849;SDS011;1940;51.052;13.678;2022-11-15T15:51:45;30.10;;;14.90;;
3849;SDS011;1940;51.052;13.678;2022-11-15T15:54:11;29.63;;;13.60;;
3849;SDS011;1940;51.052;13.678;2022-11-15T15:56:36;28.33;;;14.37;;
3849;SDS011;1940;51.052;13.678;2022-11-15T15:59:02;24.83;;;12.87;;
3849;SDS011;1940;51.052;13.678;2022-11-15T16:01:27;28.80;;;14.07;;
3849;SDS011;1940;51.052;13.678;2022-11-15T16:03:53;31.37;;;14.93;;
3849;SDS011;1940;51.052;13.678;2022-11-15T16:06:32;25.80;;;13.33;;
3849;SDS011;1940;51.052;13.678;2022-11-15T16:08:59;28.43;;;14.10;;
3849;SDS011;1940;51.052;13.678;2022-11-15T16:11:24;29.07;;;14.80;;
3849;SDS011;1940;51.052;13.678;2022-11-15T16:13:50;31.23;;;14.90;;
3849;SDS011;1940;51.052;13.678;2022-11-15T16:16:16;34.40;;;15.10;;
3849;SDS011;1940;51.052;13.678;2022-11-15T16:18:43;28.80;;;14.30;;
3849;SDS011;1940;51.052;13.678;2022-11-15T16:21:08;30.37;;;13.97;;
3849;SDS011;1940;51.052;13.678;2022-11-15T16:23:34;29.03;;;13.90;;
3849;SDS011;1940;51.052;13.678;2022-11-15T16:25:59;29.50;;;14.83;;
3849;SDS011;1940;51.052;13.678;2022-11-15T16:28:28;29.90;;;14.93;;
3849;SDS011;1940;51.052;13.678;2022-11-15T16:33:26;31.20;;;14.43;;
3849;SDS011;1940;51.052;13.678;2022-11-15T16:35:51;34.70;;;14.87;;
3849;SDS011;1940;51.052;13.678;2022-11-15T16:38:17;29.97;;;14.57;;
3849;SDS011;1940;51.052;13.678;2022-11-15T16:40:43;33.87;;;15.10;;
3849;SDS011;1940;51.052;13.678;2022-11-15T16:43:09;29.30;;;14.83;;
3849;SDS011;1940;51.052;13.678;2022-11-15T16:45:35;32.90;;;14.57;;
3849;SDS011;1940;51.052;13.678;2022-11-15T16:48:00;29.60;;;14.70;;
3849;SDS011;1940;51.052;13.678;2022-11-15T16:50:29;32.07;;;14.07;;
3849;SDS011;1940;51.052;13.678;2022-11-15T16:52:59;27.60;;;14.50;;
3849;SDS011;1940;51.052;13.678;2022-11-15T16:55:26;28.00;;;14.60;;
3849;SDS011;1940;51.052;13.678;2022-11-15T16:57:53;35.33;;;14.77;;
3849;SDS011;1940;51.052;13.678;2022-11-15T17:00:22;29.70;;;15.20;;
3849;SDS011;1940;51.052;13.678;2022-11-15T17:02:48;27.53;;;14.30;;
3849;SDS011;1940;51.052;13.678;2022-11-15T17:05:15;29.07;;;14.70;;
3849;SDS011;1940;51.052;13.678;2022-11-15T17:07:42;29.30;;;15.20;;
3849;SDS011;1940;51.052;13.678;2022-11-15T17:10:08;35.27;;;16.23;;
3849;SDS011;1940;51.052;13.678;2022-11-15T17:12:36;30.20;;;14.40;;
3849;SDS011;1940;51.052;13.678;2022-11-15T17:15:02;30.27;;;14.50;;
3849;SDS011;1940;51.052;13.678;2022-11-15T17:17:28;30.03;;;15.60;;
3849;SDS011;1940;51.052;13.678;2022-11-15T17:19:54;28.70;;;14.27;;
3849;SDS011;1940;51.052;13.678;2022-11-15T17:22:20;25.90;;;13.50;;